Boynton Beach, FL

6:11 PM EST on December 26, 2014 (GMT -0500)
APRSWXNET Boynton Beach FL US | Change Station
CLOSE
Current Station
Personal Weather Station
Location: Boynton Beach, FL
Elevation: 29 ft
Nearby Weather Stations

Elev 29 ft 26.53 °N, 80.08 °W | Updated 150 days ago

Mostly Cloudy
Mostly Cloudy
73 °F
Feels Like 73 °F
N
6
Wind Variable Wind from ENE
Gusts 9 mph

Today
High -- | Low -- °F
--% Chance of Precip.
Yesterday
High -- | Low -- °F
Precip. -- in
7:06 AM 5:35 PM
Waxing Crescent, 30% visible
Pressure 30.15 in
Visibility 9.0 miles
Clouds Few 900 ft
Mostly Cloudy 1500 ft
Overcast 2300 ft
Dew Point 70 °F
Humidity 85%
Rainfall 0.06 in
Snow Depth Not available.
UV 0 out of 12
Pollen 4.50 out of 12
Air Quality Not available.
Flu Activity Not available.
METAR KPBI 262253Z 02005KT 9SM -RA FEW009 BKN015 OVC023 23/22 A3015 RMK AO2 RAB46 SLP210 P0000 T02330222

More Conditions Fewer Conditions

Pressure 30.15 in
Visibility 9.0 miles
Clouds Few 900 ft
Mostly Cloudy 1500 ft
Overcast 2300 ft
Dew Point 70 °F
Humidity 85%
Rainfall 0.06 in
Snow Depth Not available.
UV 0 out of 12
Pollen 4.50 out of 12
Air Quality Not available.
Flu Activity Not available.
METAR KPBI 262253Z 02005KT 9SM -RA FEW009 BKN015 OVC023 23/22 A3015 RMK AO2 RAB46 SLP210 P0000 T02330222

More Conditions Fewer Conditions

10-Day Weather Forecast

Almanac

Astronomy

Dec. 26, 2014 Rise Set
Actual Time
Civil Twilight
Nautical Twilight
Astronomical Twilight
Moon
Length of Visible Light
Length of Day
Tomorrow will be .
, % of the Moon is Illuminated

Today's Extremes

State Highs State Lows

Community

WunderPhotos

Upload Photos

1,780,764 photos uploaded!

WunderBlogs® & News

Nearby

Air Quality

  Air Quality AQ Index Pollutant
Not available.

Snow Depth

Station Depth Elevation

Earthquake Activity

City Distance Mag. Time & Date
Minimum magnitude displayed is 2.5.

Coastal Water Temperatures

Place Temperature

Nearby Weather Stations